Tiempo atmosférico en la estación meteorológica de Chelva, València/Valencia (546 m.)

Fecha
DESCASC
Temp. máxima en grados centígrados (hora)
DESCASC
Temp. mínima en grados centígrados (hora)
DESCASC
Temp. media en grados centígrados
DESCASC
Racha de viento máxima en m/sg (hora)
DESCASC
Velocidad máxima media en intervalos de 10 minutos(hora)
DESCASC
Precipitaciones diarias en mm
DESCASC
Precipitaciones de 00:00 a 06:00 en mm
DESCASC
Precipitaciones de 06:00 a 12:00 en mm
DESCASC
Precipitaciones de 12:00 a 18:00 en mm
DESCASC
Precipitaciones de 18:00 a 24:00 en mm
DESCASC
17-08-2017 31.9 (16:00) 21.1 (04:20) 26.5 9.17 (19:00) 5.28 (15:40) 0 0 0 0 0
16-08-2017 31.3 (15:30) 19 (07:20) 25.1 9.72 (18:40) 5.83 (17:10) 0 0 0 0 0
15-08-2017 30.4 (15:20) 16.3 (00:00) 23.3 11.11 (12:00) 5.56 (17:30) 0 0 0 0 0
14-08-2017 29 (15:40) 14.8 (07:30) 21.9 10.28 (19:00) 6.11 (18:40) 0 0 0 0 0
13-08-2017 28.6 (16:30) 14.2 (00:00) 21.4 10.28 (15:20) 5.56 (15:20) 0 0 0 0 0
12-08-2017 28.8 (15:00) 13.8 (00:00) 21.3 9.72 (17:10) 5.83 (16:50) 0 0 0 0 0
11-08-2017 29.4 (15:10) 12.9 (00:00) 21.1 9.44 (18:20) 5.83 (17:10) 0 0 0 0 0
10-08-2017 28.9 (17:30) 11.2 (00:00) 20 12.22 (03:40) 6.11 (03:40) 6.2 6.2 0 0 0
09-08-2017 27.3 (15:20) 16.9 (00:00) 22.1 11.11 (17:10) 6.94 (17:10) 2.8 0 0 0 2.8
08-08-2017 35.4 (16:10) 20.7 (00:00) 28.1 10 (14:40) 5.83 (17:40) 0 0 0 0 0
07-08-2017 32.5 (15:50) 21.5 (00:00) 27 10.28 (17:40) 6.39 (17:10) 0 0 0 0 0
06-08-2017 29.6 (15:40) 18.6 (00:00) 24.1 11.39 (18:50) 6.39 (17:10) 0.2 0 0.2 0 0
05-08-2017 35.1 (15:20) 20.4 (00:00) 27.7 10.28 (17:00) 6.11 (17:50) 2.1 0 0 0 2.1
04-08-2017 35.6 (14:50) 21 (00:00) 28.3 10.56 (18:00) 5.83 (17:50) 0 0 0 0 0
03-08-2017 37.7 (15:10) 19 (00:00) 28.4 9.72 (17:30) 5.28 (18:10) 0 0 0 0 0
02-08-2017 30.8 (16:10) 19.8 (00:00) 25.3 10.83 (17:20) 6.11 (17:20) 1.6 0 1.4 0.2 0
01-08-2017 28.1 (17:00) 19.9 (00:00) 24 8.89 (11:50) 4.72 (14:10) 3.2 0 1 2 0.2
31-07-2017 32.2 (16:20) 19.5 (00:00) 25.9 10.28 (17:30) 6.11 (17:40) 0 0 0 0 0
30-07-2017 34.5 (15:00) 20.7 (00:00) 27.6 10.28 (15:00) 5.56 (17:10) 0 0 0 0 0
29-07-2017 33.8 (15:50) 18.5 (00:00) 26.1 8.89 (15:00) 5.56 (17:20) 0 0 0 0 0
28-07-2017 32.6 (15:30) 20.4 (00:00) 26.5 11.94 (18:30) 6.67 (16:10) 0 0 0 0 0
27-07-2017 35.9 (15:10) 18 (00:00) 27 10.83 (17:10) 6.11 (16:00) 0 0 0 0 0
26-07-2017 32.9 (13:50) 15.6 (00:00) 24.3 10.56 (16:40) 6.39 (16:00) 0 0 0 0 0
25-07-2017 32.1 (14:50) 17.6 (00:00) 24.8 11.94 (16:00) 7.22 (16:20) 0 0 0 0 0
24-07-2017 33.5 (14:10) 17.8 (00:00) 25.6 10.83 (17:40) 6.39 (16:30) 0 0 0 0 0
23-07-2017 30.5 (17:30) 19.3 (00:00) 24.9 10.83 (19:10) 6.11 (19:00) 0 0 0 0 0
22-07-2017 30.3 (16:20) 19.6 (00:00) 24.9 10.56 (17:30) 5.83 (18:00) 0 0 0 0 0

Gráficas

Temp. máximas Temp. mínimas Temp. medias Precipitaciones Rachas de viento máximas Velocidades máximas media en intervalos de 10 minutos

Datos horarios

Fecha y hora oficial Temperatura (ºC) Velocidad del viento (km/h) Dirección del viento Racha (km/h) Dirección de racha Precipitación (mm) Presión (hPa) Tendencia (hPa) Humedad (%)
2017-08-20 23:00:00 22.4 9 Sudeste 17 Sudeste 0 -- -- 78
2017-08-20 22:00:00 23.2 9 Este 24 Sudeste 0 -- -- 75
2017-08-20 21:00:00 23.7 13 Sudeste 28 Sudeste 0 -- -- 73
2017-08-20 20:00:00 25.7 16 Sudeste 31 Sudeste 0 -- -- 65
2017-08-20 19:00:00 27.2 19 Sudeste 38 Sudeste 0 -- -- 62
2017-08-20 18:00:00 28.7 17 Sudeste 32 Sudeste 0 -- -- 59
2017-08-20 17:00:00 29.3 16 Sudeste 33 Sudeste 0 -- -- 58
2017-08-20 16:00:00 29.8 18 Sudeste 33 Sudeste 0 -- -- 55
2017-08-20 15:00:00 29.1 16 Sudeste 32 Sudeste 0 -- -- 57
2017-08-20 14:00:00 28.6 15 Sudeste 29 Sudeste 0 -- -- 58
2017-08-20 13:00:00 28.3 10 Sudeste 23 Sur 0 -- -- 56
2017-08-20 12:00:00 27.5 10 Sudeste 20 Este 0 -- -- 59
2017-08-20 11:00:00 26.6 8 Sur 14 Sudeste 0 -- -- 61
2017-08-20 10:00:00 25 3 Oeste 6 Sudeste 0 -- -- 69
2017-08-20 09:00:00 21.7 3 Oeste 6 Oeste 0 -- -- 82
2017-08-20 08:00:00 19.6 0 Calma 5 Nordeste 0 -- -- 90
2017-08-20 07:00:00 19.4 3 Nordeste 5 Norte 0 -- -- 90
2017-08-20 06:00:00 19.9 2 Nordeste 5 Este 0 -- -- 89
2017-08-20 05:00:00 20.9 0 Calma 3 Este 0 -- -- 92
2017-08-20 04:00:00 21.3 0 Calma 4 Sudeste 0 -- -- 91
2017-08-20 03:00:00 21.4 3 Sudeste 5 Sudeste 0 -- -- 90
2017-08-20 02:00:00 21.6 4 Sudeste 6 Sudeste 0 -- -- 88
2017-08-20 01:00:00 22.2 4 Sudeste 9 Sudeste 0 -- -- 85
2017-08-20 00:00:00 22.5 6 Sudeste 14 Sudeste 0 -- -- 85
2017-08-19 23:00:00 22.7 8 Sudeste 18 Sudeste 0 -- -- 83
2017-08-19 22:00:00 23 10 Sudeste 22 Sudeste 0 -- -- 81
2017-08-19 21:00:00 23.7 12 Sudeste 26 Sudeste 0 -- -- 76
2017-08-19 20:00:00 25 17 Sudeste 29 Sudeste 0 -- -- 70
2017-08-19 19:00:00 26.7 18 Sudeste 36 Sudeste 0 -- -- 65
2017-08-19 18:00:00 27 18 Sudeste 33 Sudeste 0 -- -- 63
2017-08-19 17:00:00 28.4 18 Sudeste 34 Sudeste 0 -- -- 58
2017-08-19 16:00:00 29 15 Sudeste 31 Sudeste 0 -- -- 54
2017-08-19 15:00:00 28.8 16 Sudeste 36 Sur 0 -- -- 53
2017-08-19 14:00:00 28.3 20 Sudeste 33 Sudeste 0 -- -- 53
2017-08-19 13:00:00 28 16 Sudeste 33 Sudeste 0 -- -- 51
2017-08-19 12:00:00 26.7 14 Sudeste 31 Sudeste 0 -- -- 58
2017-08-19 11:00:00 25.9 13 Sudeste 22 Sudeste 0 -- -- 62
2017-08-19 10:00:00 24.2 7 Sudeste 12 Sudeste 0 -- -- 71
2017-08-19 09:00:00 24.1 0 Calma 6 Norte 0 -- -- 66
2017-08-19 08:00:00 20.1 4 Norte 6 Nordeste 0 -- -- 83
2017-08-19 07:00:00 20 4 Norte 8 Sudeste 0 -- -- 80
2017-08-19 06:00:00 20.4 3 Nordeste 6 Este 0 -- -- 77
2017-08-19 05:00:00 20.6 3 Norte 5 Norte 0 -- -- 82
2017-08-19 04:00:00 21.1 0 Calma 6 Este 0 -- -- 79
2017-08-19 03:00:00 21.5 4 Nordeste 8 Oeste 0 -- -- 78
2017-08-19 02:00:00 22 0 Calma 9 Sudeste 0 -- -- 81
2017-08-19 01:00:00 22.7 4 Este 8 Este 0 -- -- 73
2017-08-19 00:00:00 23.6 0 Calma 6 Nordeste 0 -- -- 71
2017-08-18 23:00:00 24.3 3 Norte 10 Sudeste 0 -- -- 70
2017-08-18 22:00:00 25 10 Sudeste 21 Sudeste 0 -- -- 68
2017-08-18 21:00:00 27 13 Sudeste 23 Sudeste 0 -- -- 62
2017-08-18 20:00:00 29 12 Sudeste 23 Sur 0 -- -- 58
2017-08-18 19:00:00 30.6 15 Sudeste 30 Sudeste 0 -- -- 57
2017-08-18 18:00:00 32.2 18 Sudeste 30 Sudeste 0 -- -- 53
2017-08-18 17:00:00 33.5 19 Sudeste 32 Sudeste 0 -- -- 47
2017-08-18 16:00:00 34.5 16 Sudeste 30 Sudeste 0 -- -- 39
2017-08-18 15:00:00 34.2 14 Sudeste 23 Sur 0 -- -- 36
2017-08-18 14:00:00 33.6 12 Sudeste 21 Sudeste 0 -- -- 35
2017-08-18 13:00:00 33 6 Sur 14 Sur 0 -- -- 35
2017-08-18 12:00:00 31.8 5 Sur 9 Sur 0 -- -- 38
2017-08-18 11:00:00 28.5 5 Sudeste 8 Sur 0 -- -- 51
2017-08-18 10:00:00 26.7 2 Sudoeste 5 Sudoeste 0 -- -- 55
2017-08-18 09:00:00 23.5 2 Sudoeste 6 Oeste 0 -- -- 64
2017-08-18 08:00:00 18.9 0 Calma 4 Oeste 0 -- -- 84
2017-08-18 07:00:00 18.6 0 Calma 3 Noroeste 0 -- -- 84
2017-08-18 06:00:00 19 0 Calma 4 Oeste 0 -- -- 83
2017-08-18 05:00:00 19.6 0 Calma 4 Noroeste 0 -- -- 81
2017-08-18 04:00:00 20 0 Calma 4 Norte 0 -- -- 81
2017-08-18 03:00:00 20.8 3 Oeste 5 Oeste 0 -- -- 79
2017-08-18 02:00:00 21.5 0 Calma 4 Norte 0 -- -- 76
2017-08-18 01:00:00 22 2 Norte 4 Norte 0 -- -- 75
2017-08-18 00:00:00 22.8 0 Calma 6 Sudeste 0 -- -- 77
2017-08-17 23:00:00 23.4 3 Sudeste 14 Sudeste 0 -- -- 75
2017-08-17 22:00:00 24.7 9 Sudeste 15 Sudeste 0 -- -- 67
2017-08-17 21:00:00 26 12 Sudeste 26 Sudeste 0 -- -- 61
2017-08-17 20:00:00 28.1 15 Sudeste 30 Sudeste 0 -- -- 47
2017-08-17 19:00:00 29.6 19 Sudeste 33 Sudeste 0 -- -- 45
2017-08-17 18:00:00 31.1 16 Sudeste 30 Sudeste 0 -- -- 46
2017-08-17 17:00:00 31.4 16 Sudeste 31 Sudeste 0 -- -- 48
2017-08-17 16:00:00 31.9 15 Sudeste 31 Sudeste 0 -- -- 47
2017-08-17 15:00:00 31.3 17 Sudeste 28 Sudeste 0 -- -- 45
2017-08-17 14:00:00 30.6 14 Sudeste 28 Sudeste 0 -- -- 48
2017-08-17 13:00:00 29.3 16 Sudeste 29 Sur 0 -- -- 55
2017-08-17 12:00:00 28.6 11 Sudeste 21 Sudeste 0 -- -- 60
2017-08-17 11:00:00 26.9 4 Sudeste 11 Sudeste 0 -- -- 67
2017-08-17 10:00:00 25.9 3 Sur 6 Sur 0 -- -- 72
2017-08-17 09:00:00 23.8 0 Calma 6 Nordeste 0 -- -- 78
2017-08-17 08:00:00 22 3 Nordeste 6 Este 0 -- -- 84
2017-08-17 07:00:00 21.7 4 Nordeste 8 Nordeste 0 -- -- 85
2017-08-17 06:00:00 21.8 4 Nordeste 8 Este 0 -- -- 85
2017-08-17 05:00:00 21.8 2 Oeste 7 Norte 0 -- -- 88
2017-08-17 04:00:00 21.4 5 Nordeste 6 Nordeste 0 -- -- 88
2017-08-17 03:00:00 22.2 0 Calma 5 Norte 0 -- -- 87
2017-08-17 02:00:00 22.9 3 Nordeste 4 Nordeste 0 -- -- 85
2017-08-17 01:00:00 23.3 0 Calma 4 Oeste 0 -- -- 84
2017-08-17 00:00:00 23.2 0 Calma 11 Este 0 -- -- 86
2017-08-16 23:00:00 23.6 7 Sudeste 23 Sudeste 0 -- -- 84
2017-08-16 22:00:00 24.1 12 Sudeste 22 Sudeste 0 -- -- 82
2017-08-16 21:00:00 25 12 Sudeste 26 Sudeste 0 -- -- 77
2017-08-16 20:00:00 26.9 15 Sudeste 29 Sudeste 0 -- -- 71
2017-08-16 19:00:00 27.9 18 Sudeste 35 Sur 0 -- -- 67
2017-08-16 18:00:00 30.1 18 Sudeste 33 Sudeste 0 -- -- 59
2017-08-16 17:00:00 31 18 Sudeste 33 Sudeste 0 -- -- 54
2017-08-16 16:00:00 31.1 17 Sudeste 33 Sudeste 0 -- -- 52
2017-08-16 15:00:00 30.7 17 Sudeste 27 Este 0 -- -- 51
2017-08-16 14:00:00 29.9 18 Sur 27 Sudeste 0 -- -- 52
2017-08-16 13:00:00 28.5 13 Sudeste 23 Sudeste 0 -- -- 55
2017-08-16 12:00:00 27.5 12 Sudeste 21 Sudeste 0 -- -- 57
2017-08-16 11:00:00 26.3 10 Sudeste 15 Sudeste 0 -- -- 62
2017-08-16 10:00:00 25.1 2 Sudoeste 5 Sudoeste 0 -- -- 63
2017-08-16 09:00:00 23.1 0 Calma 5 Oeste 0 -- -- 70
2017-08-16 08:00:00 19.7 0 Calma 4 Noroeste 0 -- -- 84
2017-08-16 07:00:00 19.2 0 Calma 5 Oeste 0 -- -- 85
2017-08-16 06:00:00 19.9 0 Calma 5 Norte 0 -- -- 83
2017-08-16 05:00:00 20.2 3 Noroeste 10 Oeste 0 -- -- 83
2017-08-16 04:00:00 19.8 0 Calma 4 Noroeste 0 -- -- 88
2017-08-16 03:00:00 20.1 0 Calma 5 Oeste 0 -- -- 87
2017-08-16 02:00:00 20.6 0 Calma 8 Noroeste 0 -- -- 87
2017-08-16 01:00:00 21.1 3 Noroeste 5 Noroeste 0 -- -- 86
2017-08-16 00:00:00 21.4 0 Calma 8 Sudeste 0 -- -- 84
2017-08-15 23:00:00 22.2 4 Sudeste 18 Este 0 -- -- 82
2017-08-15 22:00:00 22.9 11 Sudeste 26 Sudeste 0 -- -- 80
2017-08-15 21:00:00 24.2 15 Sudeste 27 Sudeste 0 -- -- 66
2017-08-15 20:00:00 25.9 14 Sudeste 31 Sudeste 0 -- -- 58
2017-08-15 19:00:00 28.1 17 Sudeste 31 Sudeste 0 -- -- 55
2017-08-15 18:00:00 29.2 17 Sudeste 34 Sudeste 0 -- -- 49
2017-08-15 17:00:00 29.7 19 Sudeste 32 Sudeste 0 -- -- 50
2017-08-15 16:00:00 30.2 17 Sudeste 28 Sudeste 0 -- -- 47
2017-08-15 15:00:00 29.9 17 Sudeste 28 Sur 0 -- -- 47
2017-08-15 14:00:00 28.5 16 Sudeste 24 Sur 0 -- -- 47
2017-08-15 13:00:00 27.3 15 Sudeste 29 Sudeste 0 -- -- 46
2017-08-15 12:00:00 26.2 17 Sudeste 40 Sudeste 0 -- -- 47
2017-08-15 11:00:00 25.5 8 Sudeste 14 Sudeste 0 -- -- 46
2017-08-15 10:00:00 24 2 Norte 8 Sudoeste 0 -- -- 53
2017-08-15 09:00:00 20.7 0 Calma 11 Noroeste 0 -- -- 63
2017-08-15 08:00:00 17.2 0 Calma 5 Norte 0 -- -- 70
2017-08-15 07:00:00 16.6 0 Calma 5 Este 0 -- -- 83
2017-08-15 06:00:00 17.3 4 Oeste 7 Oeste 0 -- -- 85
2017-08-15 05:00:00 17 3 Norte 8 Norte 0 -- -- 74
2017-08-15 04:00:00 17.8 5 Nordeste 8 Nordeste 0 -- -- 82
2017-08-15 03:00:00 18.5 2 Nordeste 7 Nordeste 0 -- -- 86
2017-08-15 02:00:00 19.1 4 Nordeste 6 Norte 0 -- -- 86
2017-08-15 01:00:00 19.7 3 Este 12 Sudeste 0 -- -- 87
2017-08-15 00:00:00 20.7 8 Sudeste 16 Sudeste 0 -- -- 84
2017-08-14 23:00:00 21.2 11 Sudeste 22 Este 0 -- -- 81
2017-08-14 22:00:00 22.1 10 Sudeste 21 Sudeste 0 -- -- 76
2017-08-14 21:00:00 23 9 Sudeste 26 Sudeste 0 -- -- 72
2017-08-14 20:00:00 24.6 16 Sudeste 30 Sudeste 0 -- -- 66
2017-08-14 19:00:00 26.5 20 Sudeste 37 Sudeste 0 -- -- 52
2017-08-14 18:00:00 27.4 18 Sudeste 36 Sudeste 0 -- -- 46
2017-08-14 17:00:00 28.8 18 Sudeste 34 Sudeste 0 -- -- 45
2017-08-14 16:00:00 28.8 19 Sudeste 35 Sudeste 0 -- -- 45
2017-08-14 15:00:00 28.4 19 Sudeste 35 Sudeste 0 -- -- 44
2017-08-14 14:00:00 28 16 Sudeste 30 Sudeste 0 -- -- 45
2017-08-14 13:00:00 27.3 14 Sur 25 Sur 0 -- -- 46
2017-08-14 12:00:00 26 15 Sur 26 Sudeste 0 -- -- 50
2017-08-14 11:00:00 24.2 7 Sudeste 16 Sudeste 0 -- -- 56
2017-08-14 10:00:00 22.4 3 Sudoeste 6 Sudoeste 0 -- -- 58
2017-08-14 09:00:00 19.3 4 Oeste 14 Oeste 0 -- -- 67
2017-08-14 08:00:00 16.2 0 Calma 6 Nordeste 0 -- -- 80
2017-08-14 07:00:00 15.2 2 Oeste 7 Este 0 -- -- 89
2017-08-14 06:00:00 15.3 3 Nordeste 9 Nordeste 0 -- -- 84
2017-08-14 05:00:00 16.5 3 Norte 11 Nordeste 0 -- -- 87
2017-08-14 04:00:00 17 2 Norte 8 Este 0 -- -- 87
2017-08-14 03:00:00 18 3 Nordeste 5 Norte 0 -- -- 86
2017-08-14 02:00:00 19.1 0 Calma 8 Este 0 -- -- 87
2017-08-14 01:00:00 20 4 Este 9 Nordeste 0 -- -- 82
2017-08-14 00:00:00 20.3 5 Nordeste 9 Este 0 -- -- 79
2017-08-13 23:00:00 20.5 6 Este 14 Este 0 -- -- 81
2017-08-13 22:00:00 21.4 8 Sudeste 24 Sudeste 0 -- -- 76
2017-08-13 21:00:00 22.4 14 Sudeste 29 Sudeste 0 -- -- 72
2017-08-13 20:00:00 24.7 18 Sudeste 32 Sudeste 0 -- -- 60
2017-08-13 19:00:00 26.3 19 Sudeste 36 Sudeste 0 -- -- 53
2017-08-13 18:00:00 27.4 18 Sudeste 33 Sudeste 0 -- -- 49
2017-08-13 17:00:00 28.2 20 Sudeste 35 Sudeste 0 -- -- 45
2017-08-13 16:00:00 28.5 19 Sudeste 37 Sudeste 0 -- -- 45
2017-08-13 15:00:00 28.3 18 Sudeste 31 Sur 0 -- -- 44
2017-08-13 14:00:00 27.5 17 Sudeste 29 Sudeste 0 -- -- 46
2017-08-13 13:00:00 26.7 12 Sudeste 24 Sur 0 -- -- 45
2017-08-13 12:00:00 25.4 10 Sudeste 18 Sur 0 -- -- 52
2017-08-13 11:00:00 23.8 8 Sudeste 14 Sudeste 0 -- -- 52
2017-08-13 10:00:00 22.7 2 Sudeste 5 Sudeste 0 -- -- 45
2017-08-13 09:00:00 18.3 3 Oeste 7 Sudoeste 0 -- -- 56
2017-08-13 08:00:00 15.7 3 Oeste 6 Oeste 0 -- -- 68
2017-08-13 07:00:00 14.6 3 Oeste 8 Noroeste 0 -- -- 74
2017-08-13 06:00:00 15 0 Calma 5 Norte 0 -- -- 76
2017-08-13 05:00:00 15.2 0 Calma 5 Noroeste 0 -- -- 77
2017-08-13 04:00:00 15.9 3 Sudoeste 7 Norte 0 -- -- 80
2017-08-13 03:00:00 15.8 0 Calma 5 Norte 0 -- -- 81
2017-08-13 02:00:00 16.8 4 Nordeste 6 Norte 0 -- -- 76
2017-08-13 01:00:00 17.7 3 Norte 6 Nordeste 0 -- -- 71
2017-08-13 00:00:00 18.6 3 Nordeste 9 Este 0 -- -- 69
2017-08-12 23:00:00 19.7 6 Nordeste 13 Este 0 -- -- 66
2017-08-12 22:00:00 20.9 6 Este 19 Sudeste 0 -- -- 62
2017-08-12 21:00:00 22.3 12 Este 28 Sudeste 0 -- -- 54
2017-08-12 20:00:00 24.3 14 Sudeste 29 Este 0 -- -- 49
2017-08-12 19:00:00 25.8 19 Sudeste 33 Este 0 -- -- 44
2017-08-12 18:00:00 26.4 20 Sudeste 35 Sudeste 0 -- -- 50
2017-08-12 17:00:00 28.1 17 Sudeste 33 Sudeste 0 -- -- 48
2017-08-12 16:00:00 28.1 18 Sudeste 30 Sudeste 0 -- -- 40
2017-08-12 15:00:00 28.8 13 Sudeste 24 Sudeste 0 -- -- 39
2017-08-12 14:00:00 28.2 6 Sur 18 Sur 0 -- -- 37
2017-08-12 13:00:00 27.2 8 Sudeste 17 Sudeste 0 -- -- 36
2017-08-12 12:00:00 25.3 8 Sudeste 12 Sudeste 0 -- -- 36
2017-08-12 11:00:00 23.8 3 Oeste 8 Oeste 0 -- -- 43
2017-08-12 10:00:00 20.6 5 Oeste 13 Oeste 0 -- -- 60
2017-08-12 09:00:00 19 0 Calma 6 Oeste 0 -- -- 70
2017-08-12 08:00:00 15.3 0 Calma 6 Nordeste 0 -- -- 86
2017-08-12 07:00:00 13.8 4 Norte 10 Este 0 -- -- 89
2017-08-12 06:00:00 14.2 2 Nordeste 5 Norte 0 -- -- 89
2017-08-12 05:00:00 14.6 2 Norte 5 Norte 0 -- -- 88
2017-08-12 04:00:00 15.1 3 Norte 7 Nordeste 0 -- -- 86
2017-08-12 03:00:00 15.8 5 Norte 8 Norte 0 -- -- 85
2017-08-12 02:00:00 16.8 3 Nordeste 6 Nordeste 0 -- -- 80
2017-08-12 01:00:00 17.1 3 Nordeste 5 Este 0 -- -- 78
2017-08-12 00:00:00 17.5 0 Calma 6 Este 0 -- -- 78
2017-08-11 23:00:00 18.3 5 Nordeste 13 Este 0 -- -- 74
2017-08-11 22:00:00 19.2 8 Este 20 Sudeste 0 -- -- 70
2017-08-11 21:00:00 20.4 14 Sudeste 25 Sudeste 0 -- -- 65
2017-08-11 20:00:00 22.3 17 Sudeste 31 Sudeste 0 -- -- 57
2017-08-11 19:00:00 24 17 Sudeste 34 Sudeste 0 -- -- 52
2017-08-11 18:00:00 25.1 20 Sudeste 34 Sudeste 0 -- -- 49
2017-08-11 17:00:00 26.7 18 Sudeste 31 Sudeste 0 -- -- 48
2017-08-11 16:00:00 27.5 17 Sudeste 27 Sudeste 0 -- -- 44
2017-08-11 15:00:00 28.7 6 Oeste 17 Oeste 0 -- -- 16
2017-08-11 14:00:00 26.8 9 Oeste 19 Oeste 0 -- -- 22
2017-08-11 13:00:00 24.3 10 Oeste 24 Noroeste 0 -- -- 38
2017-08-11 12:00:00 21.5 10 Oeste 18 Oeste 0 -- -- 47
2017-08-11 11:00:00 20.2 9 Sudoeste 20 Oeste 0 -- -- 48
2017-08-11 10:00:00 18.1 11 Oeste 24 Noroeste 0 -- -- 53
2017-08-11 09:00:00 16.3 9 Noroeste 23 Oeste 0 -- -- 61
2017-08-11 08:00:00 14.1 3 Norte 12 Noroeste 0 -- -- 72
2017-08-11 07:00:00 13.5 4 Noroeste 14 Oeste 0 -- -- 75
2017-08-11 06:00:00 13.5 4 Norte 11 Noroeste 0 -- -- 77
2017-08-11 05:00:00 14.9 4 Oeste 27 Oeste 0 -- -- 68
2017-08-11 04:00:00 14.6 4 Noroeste 11 Noroeste 0 -- -- 76
2017-08-11 03:00:00 14.8 2 Oeste 7 Este 0 -- -- 80
2017-08-11 02:00:00 14.9 4 Nordeste 8 Nordeste 0 -- -- 79
2017-08-11 01:00:00 16.1 0 Calma 5 Norte 0 -- -- 77
2017-08-11 00:00:00 16.9 3 Norte 6 Nordeste 0 -- -- 72
2017-08-10 23:00:00 17.5 3 Este 10 Nordeste 0 -- -- 67
2017-08-10 22:00:00 19.2 5 Sudeste 16 Sudeste 0 -- -- 59
2017-08-10 21:00:00 20.7 12 Sudeste 23 Sudeste 0 -- -- 53
2017-08-10 20:00:00 23 13 Sudeste 26 Sudeste 0 -- -- 48
2017-08-10 19:00:00 24.5 11 Sudeste 34 Sudeste 0 -- -- 47
2017-08-10 18:00:00 25.9 20 Sudeste 39 Sudeste 0 -- -- 43
2017-08-10 17:00:00 28.8 4 Oeste 21 Oeste 0 -- -- 24
2017-08-10 16:00:00 27.4 11 Oeste 24 Sudoeste 0 -- -- 25
2017-08-10 15:00:00 26.1 8 Sur 22 Sudoeste 0 -- -- 28
2017-08-10 14:00:00 24.7 10 Sudoeste 22 Sudoeste 0 -- -- 30
2017-08-10 13:00:00 23 12 Sudoeste 23 Oeste 0 -- -- 37
2017-08-10 12:00:00 21.4 12 Oeste 28 Sudoeste 0 -- -- 45
2017-08-10 11:00:00 19.2 13 Oeste 24 Oeste 0 -- -- 53
2017-08-10 10:00:00 16.9 9 Oeste 17 Sudoeste 0 -- -- 61
2017-08-10 09:00:00 14.5 10 Oeste 16 Oeste 0 -- -- 71
2017-08-10 08:00:00 12.5 5 Noroeste 18 Oeste 0 -- -- 79
2017-08-10 07:00:00 11.3 4 Noroeste 9 Oeste 0 -- -- 92
2017-08-10 06:00:00 11.9 8 Oeste 22 Sudoeste 2 -- -- 90
2017-08-10 05:00:00 12 14 Noroeste 32 Oeste 3.8 -- -- 89
2017-08-10 04:00:00 14.3 5 Norte 44 Noroeste 0.4 -- -- 76
2017-08-10 03:00:00 17.2 10 Noroeste 21 Oeste 0 -- -- 56
2017-08-10 02:00:00 17.3 8 Noroeste 17 Noroeste 0 -- -- 60
2017-08-10 01:00:00 17.1 6 Noroeste 12 Oeste 0 -- -- 67
2017-08-10 00:00:00 16.9 5 Noroeste 14 Oeste 0 -- -- 74
2017-08-09 23:00:00 17 4 Nordeste 9 Nordeste 0 -- -- 85
2017-08-09 22:00:00 17.3 4 Sudeste 26 Oeste 2.4 -- -- 89
2017-08-09 21:00:00 20.2 10 Noroeste 35 Sudeste 0.4 -- -- 76
2017-08-09 20:00:00 22.8 22 Sudeste 40 Sudeste 0 -- -- 68
2017-08-09 19:00:00 24.3 22 Sudeste 37 Sudeste 0 -- -- 65
2017-08-09 18:00:00 26 19 Sudeste 40 Sudeste 0 -- -- 60
2017-08-09 17:00:00 26.1 19 Sudeste 39 Sudeste 0 -- -- 58
2017-08-09 16:00:00 27 20 Sudeste 39 Sudeste 0 -- -- 52
2017-08-09 15:00:00 27.2 21 Sudeste 34 Este 0 -- -- 52
2017-08-09 14:00:00 26.5 17 Sudeste 31 Sudeste 0 -- -- 54
2017-08-09 13:00:00 25.9 14 Sudeste 26 Sur 0 -- -- 56
2017-08-09 12:00:00 23.3 11 Sudeste 24 Sudeste 0 -- -- 65
2017-08-09 11:00:00 22.4 8 Sudeste 20 Este 0 -- -- 70
2017-08-09 10:00:00 21.6 9 Sudeste 22 Sudeste 0 -- -- 70
2017-08-09 09:00:00 21.2 5 Sudeste 10 Sur 0 -- -- 69
2017-08-09 08:00:00 19.9 4 Este 8 Este 0 -- -- 71
2017-08-09 07:00:00 19.2 6 Nordeste 11 Nordeste 0 -- -- 73
2017-08-09 06:00:00 19.1 3 Norte 13 Nordeste 0 -- -- 74
2017-08-09 05:00:00 19.7 6 Nordeste 10 Nordeste 0 -- -- 78
2017-08-09 04:00:00 19.9 5 Nordeste 13 Este 0 -- -- 80
2017-08-09 03:00:00 20.9 7 Este 21 Este 0 -- -- 76
2017-08-09 02:00:00 21.8 13 Este 22 Este 0 -- -- 75
2017-08-09 01:00:00 22.2 11 Este 19 Sudeste 0 -- -- 76
2017-08-09 00:00:00 22.4 10 Este 24 Este 0 -- -- 77
2017-08-08 23:00:00 22.6 11 Sudeste 30 Sudeste 0 -- -- 69
2017-08-08 22:00:00 23.9 15 Sudeste 33 Este 0 -- -- 59
2017-08-08 21:00:00 24.8 18 Sudeste 33 Sudeste 0 -- -- 61
2017-08-08 20:00:00 26.9 17 Sudeste 34 Sudeste 0 -- -- 55
2017-08-08 19:00:00 28.5 21 Sudeste 36 Sudeste 0 -- -- 50
2017-08-08 18:00:00 30.6 19 Sudeste 34 Sudeste 0 -- -- 43
2017-08-08 17:00:00 35 14 Sudoeste 31 Sudoeste 0 -- -- 11
2017-08-08 16:00:00 34.9 15 Sudoeste 33 Sudoeste 0 -- -- 11
2017-08-08 15:00:00 34.3 16 Sudoeste 36 Oeste 0 -- -- 10
2017-08-08 14:00:00 32.4 10 Noroeste 26 Noroeste 0 -- -- 18
2017-08-08 13:00:00 32.3 6 Nordeste 32 Oeste 0 -- -- 18
2017-08-08 12:00:00 30.8 10 Noroeste 22 Noroeste 0 -- -- 20
2017-08-08 11:00:00 30 12 Noroeste 27 Noroeste 0 -- -- 18
2017-08-08 10:00:00 28.9 9 Oeste 19 Oeste 0 -- -- 21
2017-08-08 09:00:00 26.3 4 Noroeste 11 Oeste 0 -- -- 27
2017-08-08 08:00:00 21.6 5 Oeste 15 Noroeste 0 -- -- 38
2017-08-08 07:00:00 23.4 7 Noroeste 14 Noroeste 0 -- -- 27
2017-08-08 06:00:00 22.5 9 Oeste 19 Noroeste 0 -- -- 40
2017-08-08 05:00:00 20.9 4 Oeste 8 Oeste 0 -- -- 70
2017-08-08 04:00:00 21.2 4 Noroeste 6 Noroeste 0 -- -- 82
2017-08-08 03:00:00 22 2 Sudoeste 6 Oeste 0 -- -- 82
2017-08-08 02:00:00 22.9 3 Norte 14 Oeste 0 -- -- 79
2017-08-08 01:00:00 25 10 Oeste 18 Oeste 0 -- -- 74
2017-08-08 00:00:00 24.9 5 Noroeste 15 Oeste 0 -- -- 81
2017-08-07 23:00:00 24.7 4 Oeste 12 Sur 0 -- -- 83
2017-08-07 22:00:00 25.3 9 Sudeste 24 Sudeste 0 -- -- 81
2017-08-07 21:00:00 26.5 11 Sudeste 25 Sudeste 0 -- -- 74
2017-08-07 20:00:00 27.4 12 Sudeste 30 Sudeste 0 -- -- 71
2017-08-07 19:00:00 29.9 17 Sudeste 32 Sudeste 0 -- -- 63
2017-08-07 18:00:00 30.8 18 Sudeste 37 Sudeste 0 -- -- 59
2017-08-07 17:00:00 32.1 18 Sudeste 35 Sudeste 0 -- -- 53
2017-08-07 16:00:00 32.5 16 Sudeste 30 Sudeste 0 -- -- 48
2017-08-07 15:00:00 31.7 15 Sudeste 26 Sudeste 0 -- -- 49
2017-08-07 14:00:00 30.6 12 Sudeste 22 Sudeste 0 -- -- 54
2017-08-07 13:00:00 29.2 6 Sudeste 18 Sudeste 0 -- -- 58
2017-08-07 12:00:00 27.9 8 Sudeste 20 Este 0 -- -- 59
2017-08-07 11:00:00 26 9 Sudeste 18 Sur 0 -- -- 72
2017-08-07 10:00:00 25.3 6 Sur 10 Sudeste 0 -- -- 77
2017-08-07 09:00:00 24 0 Calma 4 Este 0 -- -- 81
2017-08-07 08:00:00 22.2 0 Calma 7 Nordeste 0 -- -- 87
2017-08-07 07:00:00 21.5 0 Calma 6 Nordeste 0 -- -- 89
2017-08-07 06:00:00 21.6 3 Este 5 Este 0 -- -- 92
2017-08-07 05:00:00 21.9 0 Calma 5 Sudeste 0 -- -- 91
2017-08-07 04:00:00 22.5 3 Este 6 Sudeste 0 -- -- 89
2017-08-07 03:00:00 22.7 0 Calma 8 Sudeste 0 -- -- 89
2017-08-07 02:00:00 22.7 4 Este 6 Sudeste 0 -- -- 89
2017-08-07 01:00:00 22.8 3 Sudeste 7 Este 0 -- -- 89
2017-08-07 00:00:00 23.3 4 Sur 13 Este 0 -- -- 86
2017-08-06 23:00:00 23.5 8 Este 19 Este 0 -- -- 83
2017-08-06 22:00:00 23.8 12 Sudeste 24 Este 0 -- -- 83
2017-08-06 21:00:00 24.5 14 Sudeste 31 Sudeste 0 -- -- 79
2017-08-06 20:00:00 25.7 16 Sudeste 34 Sudeste 0 -- -- 73
2017-08-06 19:00:00 26.9 18 Este 41 Sudeste 0 -- -- 69
2017-08-06 18:00:00 26.9 19 Este 41 Este 0 -- -- 68
2017-08-06 17:00:00 28.9 21 Sudeste 35 Sudeste 0 -- -- 61
2017-08-06 16:00:00 28.6 20 Sudeste 38 Sudeste 0 -- -- 62
2017-08-06 15:00:00 29.1 20 Sudeste 36 Sudeste 0 -- -- 60
2017-08-06 14:00:00 28.4 18 Sudeste 29 Sudeste 0 -- -- 64
2017-08-06 13:00:00 27.5 19 Sudeste 29 Sudeste 0 -- -- 69
2017-08-06 12:00:00 26.8 16 Sudeste 27 Sudeste 0 -- -- 72
2017-08-06 11:00:00 26.5 9 Sudeste 16 Sudeste 0.2 -- -- 69
2017-08-06 10:00:00 26.2 2 Sur 7 Oeste 0 -- -- 69
2017-08-06 09:00:00 22.9 2 Sudoeste 4 Oeste 0 -- -- 77
2017-08-06 08:00:00 20.2 0 Calma 6 Noroeste 0 -- -- 89
2017-08-06 07:00:00 18.8 0 Calma 6 Norte 0 -- -- 92
2017-08-06 06:00:00 19.1 0 Calma 5 Oeste 0 -- -- 92
2017-08-06 05:00:00 19.4 3 Norte 6 Nordeste 0 -- -- 91
2017-08-06 04:00:00 20.1 0 Calma 5 Nordeste 0 -- -- 89
2017-08-06 03:00:00 20.6 2 Nordeste 7 Norte 0 -- -- 87
2017-08-06 02:00:00 21.3 4 Norte 7 Nordeste 0 -- -- 87
2017-08-06 01:00:00 22 4 Oeste 15 Nordeste 0 -- -- 87
2017-08-06 00:00:00 22.2 4 Norte 11 Nordeste 0 -- -- 87
2017-08-05 23:00:00 23.3 5 Norte 16 Noroeste 0 -- -- 84
2017-08-05 22:00:00 23.4 6 Sur 21 Este -- -- -- 85
2017-08-05 21:00:00 26.9 8 Sur 24 Este 0 -- -- 63
2017-08-05 20:00:00 28.2 16 Sudeste 31 Sudeste 0 -- -- 60
2017-08-05 19:00:00 29.7 18 Sudeste 33 Sudeste 0 -- -- 51
2017-08-05 18:00:00 31.7 17 Sudeste 37 Sudeste 0 -- -- 45
2017-08-05 17:00:00 33.7 19 Sudeste 37 Sudeste 0 -- -- 43
2017-08-05 16:00:00 34.5 18 Sudeste 32 Este 0 -- -- 40
2017-08-05 15:00:00 34.4 16 Sudeste 35 Sudeste 0 -- -- 40
2017-08-05 14:00:00 34.1 17 Sudeste 32 Sudeste 0 -- -- 35
2017-08-05 13:00:00 33.3 14 Sudeste 28 Sudeste 0 -- -- 36
2017-08-05 12:00:00 32.1 12 Sudeste 19 Sudeste 0 -- -- 37
2017-08-05 11:00:00 29.8 6 Sudeste 13 Sudeste 0 -- -- 45
2017-08-05 10:00:00 28.5 3 Sur 6 Sudoeste 0 -- -- 44
2017-08-05 09:00:00 24.6 3 Oeste 5 Oeste 0 -- -- 53
2017-08-05 08:00:00 22 2 Oeste 6 Oeste 0 -- -- 60
2017-08-05 07:00:00 20.7 2 Noroeste 6 Oeste 0 -- -- 65
2017-08-05 06:00:00 20.9 3 Oeste 5 Oeste 0 -- -- 67
2017-08-05 05:00:00 21.3 2 Noroeste 5 Oeste 0 -- -- 66
2017-08-05 04:00:00 21.7 3 Norte 5 Oeste 0 -- -- 66
2017-08-05 03:00:00 22.3 0 Calma 3 Norte 0 -- -- 64
2017-08-05 02:00:00 23.2 3 Noroeste 5 Norte 0 -- -- 62
2017-08-05 01:00:00 23.9 2 Nordeste 5 Este 0 -- -- 60
2017-08-05 00:00:00 24.8 0 Calma 8 Norte 0 -- -- 57
2017-08-04 23:00:00 26.2 5 Norte 7 Norte 0 -- -- 53
2017-08-04 22:00:00 27.7 3 Este 15 Sudeste 0 -- -- 48
2017-08-04 21:00:00 29 10 Sudeste 23 Sudeste 0 -- -- 46
2017-08-04 20:00:00 31.1 13 Sudeste 31 Sudeste 0 -- -- 41
2017-08-04 19:00:00 32.4 17 Sudeste 31 Sudeste 0 -- -- 41
2017-08-04 18:00:00 33.7 21 Sudeste 38 Sudeste 0 -- -- 38
2017-08-04 17:00:00 34.8 18 Sudeste 35 Sudeste 0 -- -- 38
2017-08-04 16:00:00 35.2 18 Sudeste 30 Sudeste 0 -- -- 35
2017-08-04 15:00:00 35.6 15 Sudeste 27 Sudeste 0 -- -- 33
2017-08-04 14:00:00 34.8 13 Sudeste 24 Sudeste 0 -- -- 33
2017-08-04 13:00:00 34.5 12 Sudeste 22 Sudeste 0 -- -- 29
2017-08-04 12:00:00 32.9 10 Sudeste 17 Sudeste 0 -- -- 33
2017-08-04 11:00:00 31.7 6 Sudeste 10 Sudeste 0 -- -- 34
2017-08-04 10:00:00 29.3 3 Sudeste 5 Sudeste 0 -- -- 40
2017-08-04 09:00:00 27 3 Nordeste 7 Norte 0 -- -- 44
2017-08-04 08:00:00 23.1 4 Noroeste 19 Oeste 0 -- -- 54
2017-08-04 07:00:00 22 14 Noroeste 24 Noroeste 0 -- -- 59
2017-08-04 06:00:00 21.4 8 Noroeste 16 Noroeste 0 -- -- 62
2017-08-04 05:00:00 21.1 3 Noroeste 8 Oeste 0 -- -- 69
2017-08-04 04:00:00 21.6 3 Norte 12 Norte 0 -- -- 70
2017-08-04 03:00:00 21.6 2 Norte 7 Nordeste 0 -- -- 74
2017-08-04 02:00:00 22.2 0 Calma 5 Nordeste 0 -- -- 74
2017-08-04 01:00:00 23.4 0 Calma 5 Norte 0 -- -- 70
2017-08-04 00:00:00 24.4 2 Norte 5 Norte 0 -- -- 68
2017-08-03 23:00:00 25.6 2 Norte 5 Este 0 -- -- 63
2017-08-03 22:00:00 26.8 4 Sudeste 15 Sudeste 0 -- -- 59
2017-08-03 21:00:00 28.5 9 Sudeste 24 Sudeste 0 -- -- 51
2017-08-03 20:00:00 30.8 15 Sudeste 32 Sudeste 0 -- -- 44
2017-08-03 19:00:00 32.8 17 Sudeste 32 Sudeste 0 -- -- 38
2017-08-03 18:00:00 35.2 16 Sudeste 35 Sudeste 0 -- -- 34
2017-08-03 17:00:00 35.7 19 Sudeste 33 Sudeste 0 -- -- 33
2017-08-03 16:00:00 36.4 19 Sudeste 32 Sudeste 0 -- -- 30
2017-08-03 15:00:00 36.9 12 Sudeste 25 Sudeste 0 -- -- 26
2017-08-03 14:00:00 36.1 9 Sudeste 19 Sudeste 0 -- -- 27
2017-08-03 13:00:00 36 8 Sudoeste 15 Sudoeste 0 -- -- 28
2017-08-03 12:00:00 33.8 6 Sudoeste 12 Sudoeste 0 -- -- 35
2017-08-03 11:00:00 31.6 4 Sudoeste 9 Oeste 0 -- -- 41
2017-08-03 10:00:00 26.8 5 Oeste 9 Oeste 0 -- -- 52
2017-08-03 09:00:00 25 0 Calma 6 Oeste 0 -- -- 58
2017-08-03 08:00:00 20.7 2 Oeste 6 Oeste 0 -- -- 69
2017-08-03 07:00:00 19.1 3 Norte 5 Norte 0 -- -- 75
2017-08-03 06:00:00 19.3 3 Noroeste 6 Oeste 0 -- -- 76
2017-08-03 05:00:00 19.9 4 Norte 7 Noroeste 0 -- -- 74
2017-08-03 04:00:00 20.4 0 Calma 6 Oeste 0 -- -- 73
2017-08-03 03:00:00 20.5 0 Calma 5 Nordeste 0 -- -- 74
2017-08-03 02:00:00 21.3 0 Calma 5 Norte 0 -- -- 73
2017-08-03 01:00:00 21.8 0 Calma 4 Norte 0 -- -- 74
2017-08-03 00:00:00 22.7 0 Calma 7 Norte 0 -- -- 73
2017-08-02 23:00:00 24 3 Norte 6 Norte 0 -- -- 68
2017-08-02 22:00:00 25.4 3 Norte 6 Norte 0 -- -- 65
2017-08-02 21:00:00 27.3 2 Sudeste 13 Sudeste 0 -- -- 57
2017-08-02 20:00:00 28.3 7 Sur 20 Sudeste 0 -- -- 54
2017-08-02 19:00:00 29.1 14 Sudeste 30 Sudeste 0 -- -- 52
2017-08-02 18:00:00 29 18 Sudeste 39 Sudeste 0 -- -- 60
2017-08-02 17:00:00 29.5 21 Sudeste 32 Sudeste 0 -- -- 58
2017-08-02 16:00:00 30.6 15 Sudeste 32 Sudeste 0 -- -- 48
2017-08-02 15:00:00 28.6 12 Sudeste 22 Sur 0.2 -- -- 59
2017-08-02 14:00:00 28 3 Sudoeste 12 Sudoeste 0 -- -- 55
2017-08-02 13:00:00 26.6 6 Sudoeste 13 Sudoeste 0 -- -- 55
2017-08-02 12:00:00 24.8 4 Norte 22 Noroeste 0.6 -- -- 68
2017-08-02 11:00:00 22 5 Este 10 Este 0.4 -- -- 87
2017-08-02 10:00:00 22.4 6 Noroeste 18 Oeste 0 -- -- 80
2017-08-02 09:00:00 21.8 6 Oeste 14 Noroeste 0.2 -- -- 83
2017-08-02 08:00:00 20 6 Noroeste 12 Nordeste 0 -- -- 88
2017-08-02 07:00:00 20 0 Calma 16 Sudoeste 0.2 -- -- 88
2017-08-02 06:00:00 20.3 7 Norte 10 Norte 0 -- -- 87
2017-08-02 05:00:00 20.5 3 Norte 12 Oeste 0 -- -- 86
2017-08-02 04:00:00 20.9 5 Sudoeste 13 Oeste 0 -- -- 86
2017-08-02 03:00:00 20.5 2 Noroeste 5 Oeste 0 -- -- 92
2017-08-02 02:00:00 21 0 Calma 7 Oeste 0 -- -- 92
2017-08-02 01:00:00 21.6 3 Noroeste 8 Noroeste 0 -- -- 93
2017-08-02 00:00:00 22.3 4 Noroeste 8 Noroeste 0 -- -- 92
2017-08-01 23:00:00 23.1 4 Sudeste 10 Sudeste 0 -- -- 87
2017-08-01 22:00:00 23.5 6 Sudeste 14 Sudeste 0 -- -- 88
2017-08-01 21:00:00 24.1 7 Sudeste 17 Sudeste 0 -- -- 85
2017-08-01 20:00:00 24.6 12 Sudeste 25 Sudeste 0 -- -- 83
2017-08-01 19:00:00 25.3 13 Sudeste 25 Sudeste 0.2 -- -- 82
2017-08-01 18:00:00 27.2 11 Sudeste 20 Este 0 -- -- 67
2017-08-01 17:00:00 28.1 5 Sur 16 Noroeste 0 -- -- 55
2017-08-01 16:00:00 27.2 10 Oeste 26 Este 0 -- -- 49
2017-08-01 15:00:00 24 11 Noroeste 28 Nordeste 0.2 -- -- 64
2017-08-01 14:00:00 21.9 8 Nordeste 18 Nordeste 1.8 -- -- 80
2017-08-01 13:00:00 25.3 6 Oeste 17 Oeste 0 -- -- 60
2017-08-01 12:00:00 24.4 10 Oeste 32 Oeste 0 -- -- 79
2017-08-01 11:00:00 22.2 10 Noroeste 23 Noroeste 1 -- -- 90
2017-08-01 10:00:00 23 4 Sudeste 11 Sudeste 0 -- -- 79
2017-08-01 09:00:00 21.6 4 Noroeste 11 Este 0 -- -- 83
2017-08-01 08:00:00 20.9 0 Calma 6 Oeste 0 -- -- 88
2017-08-01 07:00:00 20.1 0 Calma 5 Sur 0 -- -- 88
2017-08-01 06:00:00 20.9 0 Calma 7 Norte 0 -- -- 87
2017-08-01 05:00:00 21.2 4 Nordeste 13 Oeste 0 -- -- 88
2017-08-01 04:00:00 22 5 Noroeste 9 Oeste 0 -- -- 86
2017-08-01 03:00:00 22.6 7 Oeste 17 Oeste 0 -- -- 86
2017-08-01 02:00:00 22.6 0 Calma 18 Este 0 -- -- 88
2017-08-01 01:00:00 22.7 11 Sudeste 19 Este 0 -- -- 89
2017-08-01 00:00:00 23.4 7 Sudeste 14 Sudeste 0 -- -- 86
2017-07-31 23:00:00 23.5 8 Sudeste 15 Sudeste 0 -- -- 84
2017-07-31 22:00:00 24.5 9 Sudeste 20 Sudeste 0 -- -- 77
2017-07-31 21:00:00 25.8 12 Sudeste 29 Sudeste 0 -- -- 69
2017-07-31 20:00:00 28 18 Sudeste 36 Sudeste 0 -- -- 59
2017-07-31 19:00:00 29.5 19 Sudeste 35 Sudeste 0 -- -- 58
2017-07-31 18:00:00 31.4 17 Sudeste 37 Sudeste 0 -- -- 51
2017-07-31 17:00:00 31.2 18 Sudeste 30 Sudeste 0 -- -- 53
2017-07-31 16:00:00 31.5 15 Sudeste 29 Sudeste 0 -- -- 53
2017-07-31 15:00:00 30.9 14 Sudeste 28 Sudeste 0 -- -- 52
2017-07-31 14:00:00 31.2 15 Sudeste 25 Sudeste 0 -- -- 51
2017-07-31 13:00:00 29.4 15 Sudeste 30 Sudeste 0 -- -- 56
2017-07-31 12:00:00 28.2 13 Sur 18 Sur 0 -- -- 58
2017-07-31 11:00:00 26.4 5 Sudeste 15 Sudeste 0 -- -- 66
2017-07-31 10:00:00 24.8 6 Sur 12 Sudeste 0 -- -- 71
2017-07-31 09:00:00 21.8 3 Este 8 Nordeste 0 -- -- 74
2017-07-31 08:00:00 20.9 0 Calma 9 Nordeste 0 -- -- 83
2017-07-31 07:00:00 19.8 4 Nordeste 7 Nordeste 0 -- -- 88
2017-07-31 06:00:00 20.8 0 Calma 5 Este 0 -- -- 87
2017-07-31 05:00:00 21.2 0 Calma 3 Oeste 0 -- -- 88
2017-07-31 04:00:00 21.9 0 Calma 5 Sudeste 0 -- -- 87
2017-07-31 03:00:00 22.3 2 Este 4 Oeste 0 -- -- 85
2017-07-31 02:00:00 22.3 0 Calma 4 Este 0 -- -- 84
2017-07-31 01:00:00 22.3 0 Calma 8 Este 0 -- -- 82
2017-07-31 00:00:00 23.4 5 Este 17 Este 0 -- -- 76
2017-07-30 23:00:00 24.3 10 Sudeste 18 Sudeste 0 -- -- 74
2017-07-30 22:00:00 25.6 8 Este 21 Sudeste 0 -- -- 72
2017-07-30 21:00:00 26.9 10 Sudeste 23 Sudeste 0 -- -- 63
2017-07-30 20:00:00 28.5 14 Sudeste 26 Sudeste 0 -- -- 59
2017-07-30 19:00:00 30.1 18 Sudeste 33 Sudeste 0 -- -- 56
2017-07-30 18:00:00 32.3 17 Sudeste 34 Sur 0 -- -- 46
2017-07-30 17:00:00 32.7 16 Sudeste 35 Sudeste 0 -- -- 47
2017-07-30 16:00:00 32.9 15 Sudeste 31 Sudeste 0 -- -- 49
2017-07-30 15:00:00 34.5 18 Sudeste 37 Sudeste 0 -- -- 41
2017-07-30 14:00:00 34 17 Sudeste 30 Sudeste 0 -- -- 41
2017-07-30 13:00:00 32.7 17 Sudeste 31 Sur 0 -- -- 43
2017-07-30 12:00:00 32.8 15 Sudeste 23 Sudeste 0 -- -- 42
2017-07-30 11:00:00 32.6 3 Sudeste 9 Este 0 -- -- 39
2017-07-30 10:00:00 30.2 3 Norte 20 Noroeste 0 -- -- 43
2017-07-30 09:00:00 25.3 7 Noroeste 16 Noroeste 0 -- -- 56
2017-07-30 08:00:00 22.9 4 Noroeste 15 Noroeste 0 -- -- 64
2017-07-30 07:00:00 20.7 3 Noroeste 10 Oeste 0 -- -- 73
2017-07-30 06:00:00 21.3 4 Noroeste 11 Oeste 0 -- -- 74
2017-07-30 05:00:00 20.9 4 Noroeste 7 Noroeste 0 -- -- 77
2017-07-30 04:00:00 20.8 0 Calma 5 Norte 0 -- -- 82
2017-07-30 03:00:00 21.2 2 Nordeste 5 Norte 0 -- -- 80
2017-07-30 02:00:00 21.6 0 Calma 6 Norte 0 -- -- 80
2017-07-30 01:00:00 22.8 6 Norte 8 Nordeste 0 -- -- 74
2017-07-30 00:00:00 23.5 3 Norte 6 Norte 0 -- -- 73
2017-07-29 23:00:00 24.5 3 Norte 5 Norte 0 -- -- 72
2017-07-29 22:00:00 25.5 3 Sudeste 15 Este 0 -- -- 70
2017-07-29 21:00:00 26.9 10 Sudeste 22 Sudeste 0 -- -- 67
2017-07-29 20:00:00 28.7 13 Sudeste 26 Sudeste 0 -- -- 61
2017-07-29 19:00:00 30.8 16 Sudeste 30 Sudeste 0 -- -- 54
2017-07-29 18:00:00 32 18 Sudeste 32 Sudeste 0 -- -- 52
2017-07-29 17:00:00 32.7 19 Sudeste 31 Sudeste 0 -- -- 51
2017-07-29 16:00:00 33.5 19 Sudeste 31 Sudeste 0 -- -- 46
2017-07-29 15:00:00 33.3 17 Sudeste 32 Sudeste 0 -- -- 47
2017-07-29 14:00:00 32.5 16 Sudeste 27 Sudeste 0 -- -- 47
2017-07-29 13:00:00 31.5 12 Sudeste 20 Sudeste 0 -- -- 49
2017-07-29 12:00:00 29.9 5 Sudeste 12 Sudeste 0 -- -- 51
2017-07-29 11:00:00 26.9 5 Sudeste 11 Sur 0 -- -- 66
2017-07-29 10:00:00 25.6 3 Sudeste 6 Sur 0 -- -- 66
2017-07-29 09:00:00 21.9 0 Calma 4 Sudeste 0 -- -- 75
2017-07-29 08:00:00 20.5 0 Calma 3 Norte 0 -- -- 87
2017-07-29 07:00:00 18.7 0 Calma 4 Nordeste 0 -- -- 91
2017-07-29 06:00:00 19.1 0 Calma 4 Norte 0 -- -- 90
2017-07-29 05:00:00 19.7 0 Calma 6 Nordeste 0 -- -- 89
2017-07-29 04:00:00 20 0 Calma 6 Este 0 -- -- 89
2017-07-29 03:00:00 20.5 0 Calma 4 Nordeste 0 -- -- 88
2017-07-29 02:00:00 21.3 3 Oeste 5 Norte 0 -- -- 86
2017-07-29 01:00:00 21.9 2 Norte 4 Noroeste 0 -- -- 85
2017-07-29 00:00:00 22.7 0 Calma 8 Este 0 -- -- 83
2017-07-28 23:00:00 23.4 4 Sudeste 13 Sudeste 0 -- -- 80
2017-07-28 22:00:00 24.4 7 Este 16 Sudeste 0 -- -- 76
2017-07-28 21:00:00 25.5 9 Sudeste 26 Sudeste 0 -- -- 73
2017-07-28 20:00:00 26.9 13 Sudeste 35 Sudeste 0 -- -- 69
2017-07-28 19:00:00 28.1 21 Sudeste 43 Sudeste 0 -- -- 65
2017-07-28 18:00:00 29.3 21 Sudeste 37 Sur 0 -- -- 63
2017-07-28 17:00:00 30.6 22 Sudeste 37 Sudeste 0 -- -- 59
2017-07-28 16:00:00 32.1 22 Sudeste 36 Sudeste 0 -- -- 52
2017-07-28 15:00:00 32.3 20 Sudeste 34 Sudeste 0 -- -- 49
2017-07-28 14:00:00 31.8 17 Sudeste 29 Sudeste 0 -- -- 49
2017-07-28 13:00:00 30.9 15 Sudeste 27 Sudeste 0 -- -- 50
2017-07-28 12:00:00 29.4 14 Sudeste 22 Sur 0 -- -- 53
2017-07-28 11:00:00 28.3 6 Sudeste 13 Sur 0 -- -- 50
2017-07-28 10:00:00 26.5 4 Sudeste 7 Sudeste 0 -- -- 50
2017-07-28 09:00:00 24.7 3 Sudeste 5 Norte 0 -- -- 53
2017-07-28 08:00:00 22 0 Calma 5 Nordeste 0 -- -- 59
2017-07-28 07:00:00 20.5 0 Calma 9 Oeste 0 -- -- 65
2017-07-28 06:00:00 20.6 5 Oeste 9 Oeste 0 -- -- 66
2017-07-28 05:00:00 20.9 2 Noroeste 6 Noroeste 0 -- -- 66
2017-07-28 04:00:00 21.4 0 Calma 4 Oeste 0 -- -- 64
2017-07-28 03:00:00 22 2 Noroeste 4 Oeste 0 -- -- 63
2017-07-28 02:00:00 22.6 0 Calma 4 Nordeste 0 -- -- 62
2017-07-28 01:00:00 23.3 2 Noroeste 5 Este 0 -- -- 61
2017-07-28 00:00:00 24.8 3 Norte 7 Norte 0 -- -- 56
2017-07-27 23:00:00 25.9 5 Norte 8 Norte 0 -- -- 53
2017-07-27 22:00:00 27.2 2 Este 15 Sudeste 0 -- -- 51
2017-07-27 21:00:00 29 11 Sudeste 27 Sudeste 0 -- -- 47
2017-07-27 20:00:00 30.9 13 Sudeste 29 Sudeste 0 -- -- 45
2017-07-27 19:00:00 32.2 18 Sudeste 29 Sudeste 0 -- -- 43
2017-07-27 18:00:00 33 20 Este 39 Sudeste 0 -- -- 45
2017-07-27 17:00:00 34.7 17 Sudeste 35 Este 0 -- -- 44
2017-07-27 16:00:00 34.6 22 Este 34 Este 0 -- -- 41
2017-07-27 15:00:00 35.2 18 Sudeste 29 Sudeste 0 -- -- 35
2017-07-27 14:00:00 34.8 13 Sudeste 27 Sudeste 0 -- -- 33
2017-07-27 13:00:00 33.3 10 Sudeste 19 Sudeste 0 -- -- 37
2017-07-27 12:00:00 31.8 5 Este 11 Sudoeste 0 -- -- 43
2017-07-27 11:00:00 29.4 4 Sudeste 8 Este 0 -- -- 48
2017-07-27 10:00:00 27.9 2 Sudoeste 6 Oeste 0 -- -- 49
2017-07-27 09:00:00 24.9 2 Noroeste 9 Noroeste 0 -- -- 58
2017-07-27 08:00:00 20.8 5 Noroeste 12 Noroeste 0 -- -- 71
2017-07-27 07:00:00 18 3 Norte 5 Oeste 0 -- -- 81
2017-07-27 06:00:00 18.6 4 Noroeste 6 Norte 0 -- -- 80
2017-07-27 05:00:00 18.6 0 Calma 4 Nordeste 0 -- -- 83
2017-07-27 04:00:00 18.9 0 Calma 8 Nordeste 0 -- -- 82
2017-07-27 03:00:00 19.2 2 Nordeste 6 Este 0 -- -- 82
2017-07-27 02:00:00 19.9 0 Calma 5 Nordeste 0 -- -- 82
2017-07-27 01:00:00 20.6 2 Norte 5 Nordeste 0 -- -- 78
2017-07-27 00:00:00 21.3 3 Sur 5 Sur 0 -- -- 79
2017-07-26 23:00:00 22 3 Sudeste 16 Sudeste 0 -- -- 75
2017-07-26 22:00:00 23 9 Sudeste 19 Sudeste 0 -- -- 71
2017-07-26 21:00:00 24.4 12 Sudeste 24 Sudeste 0 -- -- 65
2017-07-26 20:00:00 26.3 15 Sudeste 26 Sudeste 0 -- -- 57
2017-07-26 19:00:00 27.7 17 Sudeste 28 Sudeste 0 -- -- 53
2017-07-26 18:00:00 28.3 18 Sudeste 34 Sudeste 0 -- -- 52
2017-07-26 17:00:00 28.5 20 Sudeste 38 Sudeste 0 -- -- 52
2017-07-26 16:00:00 30.2 23 Sudeste 35 Sudeste 0 -- -- 46
2017-07-26 15:00:00 32.2 9 Sudeste 26 Sudeste 0 -- -- 28
2017-07-26 14:00:00 32.1 12 Sur 25 Oeste 0 -- -- 25
2017-07-26 13:00:00 31.6 11 Oeste 31 Oeste 0 -- -- 22
2017-07-26 12:00:00 29.3 10 Sudoeste 20 Oeste 0 -- -- 26
2017-07-26 11:00:00 26.6 11 Oeste 23 Oeste 0 -- -- 31
2017-07-26 10:00:00 23.3 11 Oeste 26 Oeste 0 -- -- 42
2017-07-26 09:00:00 20.2 14 Oeste 25 Oeste 0 -- -- 52
2017-07-26 08:00:00 18.5 3 Norte 7 Norte 0 -- -- 65
2017-07-26 07:00:00 15.8 3 Norte 5 Norte 0 -- -- 75
2017-07-26 06:00:00 16.2 3 Nordeste 6 Norte 0 -- -- 74
2017-07-26 05:00:00 16.5 2 Norte 5 Norte 0 -- -- 75
2017-07-26 04:00:00 17.1 3 Norte 6 Norte 0 -- -- 73
2017-07-26 03:00:00 17.6 5 Oeste 7 Oeste 0 -- -- 72
2017-07-26 02:00:00 18 0 Calma 8 Norte 0 -- -- 69
2017-07-26 01:00:00 18.9 0 Calma 5 Nordeste 0 -- -- 67
2017-07-26 00:00:00 19.9 0 Calma 8 Norte 0 -- -- 64
2017-07-25 23:00:00 21 4 Nordeste 12 Este 0 -- -- 62
2017-07-25 22:00:00 21.9 9 Este 21 Este 0 -- -- 60
2017-07-25 21:00:00 23 13 Sudeste 25 Sur 0 -- -- 55
2017-07-25 20:00:00 24.5 14 Sudeste 36 Sudeste 0 -- -- 54
2017-07-25 19:00:00 25.4 18 Sudeste 35 Sudeste 0 -- -- 51
2017-07-25 18:00:00 26.7 16 Sudeste 34 Sudeste 0 -- -- 49
2017-07-25 17:00:00 26.6 21 Sudeste 42 Sudeste 0 -- -- 49
2017-07-25 16:00:00 27.9 22 Sudeste 43 Sudeste 0 -- -- 48
2017-07-25 15:00:00 29.5 18 Sudeste 36 Sudeste 0 -- -- 45
2017-07-25 14:00:00 30.6 11 Noroeste 22 Oeste 0 -- -- 26
2017-07-25 13:00:00 29.2 9 Noroeste 24 Oeste 0 -- -- 35
2017-07-25 12:00:00 27.5 10 Oeste 27 Oeste 0 -- -- 38
2017-07-25 11:00:00 25.4 11 Oeste 22 Oeste 0 -- -- 41
2017-07-25 10:00:00 23.2 11 Oeste 23 Oeste 0 -- -- 47
2017-07-25 09:00:00 20.8 10 Oeste 19 Noroeste 0 -- -- 55
2017-07-25 08:00:00 18.5 11 Oeste 18 Oeste 0 -- -- 62
2017-07-25 07:00:00 18 12 Oeste 25 Oeste 0 -- -- 63
2017-07-25 06:00:00 18.3 15 Oeste 25 Oeste 0 -- -- 62
2017-07-25 05:00:00 19 14 Oeste 25 Oeste 0 -- -- 60
2017-07-25 04:00:00 20 11 Oeste 24 Oeste 0 -- -- 58
2017-07-25 03:00:00 20.6 13 Oeste 23 Oeste 0 -- -- 57
2017-07-25 02:00:00 20.3 3 Nordeste 8 Sudoeste 0 -- -- 65
2017-07-25 01:00:00 21.9 4 Noroeste 12 Noroeste 0 -- -- 63
2017-07-25 00:00:00 22.4 4 Norte 10 Nordeste 0 -- -- 66
2017-07-24 23:00:00 23.1 5 Nordeste 14 Este 0 -- -- 64
2017-07-24 22:00:00 24.2 7 Este 22 Sudeste 0 -- -- 61
2017-07-24 21:00:00 25.5 13 Sudeste 26 Sudeste 0 -- -- 58
2017-07-24 20:00:00 27.4 15 Sudeste 31 Sudeste 0 -- -- 54
2017-07-24 19:00:00 28.5 16 Sudeste 31 Sudeste 0 -- -- 51
2017-07-24 18:00:00 29.1 20 Sudeste 39 Sudeste 0 -- -- 51
2017-07-24 17:00:00 30.1 18 Sudeste 37 Sudeste 0 -- -- 51
2017-07-24 16:00:00 30.8 21 Sudeste 35 Sudeste 0 -- -- 50
2017-07-24 15:00:00 32.4 17 Sudeste 35 Sudeste 0 -- -- 40
2017-07-24 14:00:00 32.8 4 Oeste 22 Sudoeste 0 -- -- 30
2017-07-24 13:00:00 31.4 7 Sur 18 Sur 0 -- -- 32
2017-07-24 12:00:00 29.3 4 Sudeste 17 Sur 0 -- -- 41
2017-07-24 11:00:00 27.6 4 Sur 9 Sur 0 -- -- 50
2017-07-24 10:00:00 26.1 3 Sudoeste 9 Oeste 0 -- -- 54
2017-07-24 09:00:00 23.3 3 Este 5 Nordeste 0 -- -- 68
2017-07-24 08:00:00 20.6 0 Calma 8 Este 0 -- -- 79
2017-07-24 07:00:00 17.8 0 Calma 6 Este 0 -- -- 91
2017-07-24 06:00:00 18.2 0 Calma 6 Norte 0 -- -- 91
2017-07-24 05:00:00 18.7 0 Calma 5 Norte 0 -- -- 91
2017-07-24 04:00:00 19.1 0 Calma 5 Norte 0 -- -- 90
2017-07-24 03:00:00 19.8 0 Calma 4 Oeste 0 -- -- 89
2017-07-24 02:00:00 20.6 3 Oeste 5 Sudoeste 0 -- -- 86
2017-07-24 01:00:00 21 0 Calma 5 Sudeste 0 -- -- 86
2017-07-24 00:00:00 22.6 4 Sur 12 Sudeste 0 -- -- 79
2017-07-23 23:00:00 23 6 Este 18 Sudeste 0 -- -- 76
2017-07-23 22:00:00 23.2 12 Sudeste 27 Este 0 -- -- 74
2017-07-23 21:00:00 24.4 16 Sudeste 29 Sudeste 0 -- -- 68
2017-07-23 20:00:00 26.1 20 Sudeste 39 Sudeste 0 -- -- 60
2017-07-23 19:00:00 28.1 22 Sudeste 37 Sudeste 0 -- -- 56
2017-07-23 18:00:00 29.8 19 Sudeste 35 Sudeste 0 -- -- 52
2017-07-23 17:00:00 29.9 17 Sudeste 31 Sudeste 0 -- -- 50
2017-07-23 16:00:00 29.4 17 Sudeste 31 Este 0 -- -- 53
2017-07-23 15:00:00 29.1 13 Sudeste 29 Sudeste 0 -- -- 53
2017-07-23 14:00:00 28 14 Sudeste 30 Sudeste 0 -- -- 58
2017-07-23 13:00:00 26.7 15 Sudeste 25 Sudeste 0 -- -- 66
2017-07-23 12:00:00 25 13 Sudeste 22 Sudeste 0 -- -- 75
2017-07-23 11:00:00 22.3 3 Sur 13 Sudeste 0 -- -- 87
2017-07-23 10:00:00 21.3 6 Sur 13 Sudeste 0 -- -- 89
2017-07-23 09:00:00 21.3 6 Sudeste 25 Sudeste 0 -- -- 85
2017-07-23 08:00:00 20.6 7 Sudeste 15 Sudeste 0 -- -- 84
2017-07-23 07:00:00 20.5 4 Noroeste 12 Oeste 0 -- -- 81
2017-07-23 06:00:00 19.4 0 Calma 6 Norte 0 -- -- 87
2017-07-23 05:00:00 19.5 4 Norte 5 Noroeste 0 -- -- 87
2017-07-23 04:00:00 19.3 0 Calma 6 Este 0 -- -- 89
2017-07-23 03:00:00 19.8 3 Norte 6 Nordeste 0 -- -- 87
2017-07-23 02:00:00 20.4 2 Nordeste 5 Nordeste 0 -- -- 84
2017-07-23 01:00:00 21.4 4 Norte 8 Este 0 -- -- 82
2017-07-23 00:00:00 22.4 3 Nordeste 4 Norte 0 -- -- 78
2017-07-22 23:00:00 22.9 2 Sudeste 12 Este 0 -- -- 78
2017-07-22 22:00:00 24.2 8 Sudeste 22 Sudeste 0 -- -- 73
2017-07-22 21:00:00 25.7 13 Sudeste 27 Sudeste 0 -- -- 66
2017-07-22 20:00:00 27.2 16 Sudeste 31 Sudeste 0 -- -- 61
2017-07-22 19:00:00 28.1 19 Sudeste 35 Sudeste 0 -- -- 59
2017-07-22 18:00:00 29.2 21 Sudeste 38 Sudeste 0 -- -- 56
2017-07-22 17:00:00 29.6 20 Sudeste 34 Sudeste 0 -- -- 55
2017-07-22 16:00:00 29.7 18 Sudeste 33 Sudeste 0 -- -- 57
2017-07-22 15:00:00 29.1 19 Sudeste 32 Sudeste 0 -- -- 58
2017-07-22 14:00:00 28.7 16 Este 32 Sudeste 0 -- -- 58
2017-07-22 13:00:00 28.2 18 Sudeste 31 Sudeste 0 -- -- 58
2017-07-22 12:00:00 27.4 19 Sudeste 36 Sudeste 0 -- -- 60
2017-07-22 11:00:00 27.8 12 Sudeste 22 Sudeste 0 -- -- 56
2017-07-22 10:00:00 26.3 6 Oeste 14 Oeste 0 -- -- 65
2017-07-22 09:00:00 24.1 4 Oeste 10 Oeste 0 -- -- 74
2017-07-22 08:00:00 21.4 0 Calma 5 Nordeste 0 -- -- 85
2017-07-22 07:00:00 19.7 3 Norte 7 Norte 0 -- -- 91
2017-07-22 06:00:00 20.2 3 Norte 5 Norte 0 -- -- 90
2017-07-22 05:00:00 21.3 0 Calma 4 Sudeste 0 -- -- 89
2017-07-22 04:00:00 21.9 2 Sudeste 7 Sudeste 0 -- -- 86
2017-07-22 03:00:00 22.1 4 Sudeste 10 Sudeste 0 -- -- 86
2017-07-22 02:00:00 22.2 3 Sudeste 7 Sudeste 0 -- -- 86
2017-07-22 01:00:00 22.3 3 Sudeste 5 Sur 0 -- -- 85
2017-07-22 00:00:00 21.9 4 Sudeste 18 Sudeste 0 -- -- 86